createdAt,value
2022-09-20T00:00:17.148Z,19.51
2022-09-20T00:02:44.233Z,19.48
2022-09-20T00:05:12.414Z,19.47
2022-09-20T00:07:39.286Z,19.41
2022-09-20T00:10:06.878Z,19.38
2022-09-20T00:12:33.671Z,19.38
2022-09-20T00:15:00.441Z,19.35
2022-09-20T00:17:27.231Z,19.36
2022-09-20T00:19:53.969Z,19.32
2022-09-20T00:22:22.325Z,19.32
2022-09-20T00:24:49.274Z,19.27
2022-09-20T00:27:16.124Z,19.28
2022-09-20T00:29:42.940Z,19.24
2022-09-20T00:32:09.718Z,19.24
2022-09-20T00:34:36.490Z,19.18
2022-09-20T00:37:03.363Z,19.12
2022-09-20T00:39:31.674Z,19.17
2022-09-20T00:41:58.581Z,19.12
2022-09-20T00:44:57.396Z,19.18
2022-09-20T00:47:40.893Z,19.17
2022-09-20T00:50:28.598Z,19.19
2022-09-20T00:53:02.907Z,19.18
2022-09-20T00:55:32.913Z,19.17
2022-09-20T00:58:00.864Z,19.18
2022-09-20T01:00:28.504Z,19.17
2022-09-20T01:03:00.971Z,19.15
2022-09-20T01:05:28.377Z,19.14
2022-09-20T01:07:57.146Z,19.12
2022-09-20T01:10:24.225Z,19.14
2022-09-20T01:12:54.073Z,19.10
2022-09-20T01:15:23.616Z,19.10
2022-09-20T01:17:54.820Z,19.08
2022-09-20T01:20:26.542Z,19.10
2022-09-20T01:23:17.525Z,19.08
2022-09-20T01:26:15.230Z,19.04
2022-09-20T01:28:46.584Z,19.00
2022-09-20T01:31:20.067Z,19.00
2022-09-20T01:33:52.689Z,18.98
2022-09-20T01:36:26.773Z,19.00
2022-09-20T01:39:08.924Z,19.03
2022-09-20T01:41:44.227Z,18.98
2022-09-20T01:44:27.489Z,19.00
2022-09-20T01:47:03.813Z,19.00
2022-09-20T01:49:45.143Z,18.98
2022-09-20T01:52:56.048Z,19.00
2022-09-20T01:56:24.804Z,18.97
2022-09-20T01:59:26.169Z,18.91
2022-09-20T02:02:20.598Z,18.91
2022-09-20T02:05:38.472Z,18.93
2022-09-20T02:08:31.129Z,18.90
2022-09-20T02:11:06.846Z,18.83
2022-09-20T02:13:57.151Z,18.81
2022-09-20T02:16:50.752Z,18.90
2022-09-20T02:19:50.200Z,18.84
2022-09-20T02:22:31.217Z,18.83
2022-09-20T02:25:14.500Z,18.81
2022-09-20T02:28:01.295Z,18.78
2022-09-20T02:30:46.217Z,18.78
2022-09-20T02:33:40.491Z,18.74
2022-09-20T02:36:30.913Z,18.71
2022-09-20T02:39:07.549Z,18.64
2022-09-20T02:41:55.920Z,18.66
2022-09-20T02:44:38.875Z,18.61
2022-09-20T02:47:18.213Z,18.59
2022-09-20T02:50:01.003Z,18.59
2022-09-20T02:52:37.786Z,18.55
2022-09-20T02:55:14.477Z,18.55
2022-09-20T02:57:53.378Z,18.52
2022-09-20T03:00:25.722Z,18.49
2022-09-20T03:03:06.323Z,18.37
2022-09-20T03:05:47.794Z,18.33
2022-09-20T03:08:33.257Z,18.33
2022-09-20T03:11:15.826Z,18.35
2022-09-20T03:14:05.400Z,18.33
2022-09-20T03:16:51.316Z,18.28
2022-09-20T03:19:38.557Z,18.32
2022-09-20T03:22:26.373Z,18.35
2022-09-20T03:25:19.058Z,18.35
2022-09-20T03:28:03.634Z,18.32
2022-09-20T03:30:49.568Z,18.35
2022-09-20T03:33:28.246Z,18.33
2022-09-20T03:36:13.995Z,18.36
2022-09-20T03:39:09.276Z,18.36
2022-09-20T03:42:01.939Z,18.30
2022-09-20T03:44:53.770Z,18.15
2022-09-20T03:47:40.302Z,18.19
2022-09-20T03:50:46.251Z,18.25
2022-09-20T03:53:49.978Z,18.21
2022-09-20T03:56:52.885Z,18.24
2022-09-20T03:59:37.293Z,18.09
2022-09-20T04:02:37.998Z,18.13
2022-09-20T04:05:11.348Z,18.09
2022-09-20T04:07:57.129Z,18.16
2022-09-20T04:10:41.884Z,18.15
2022-09-20T04:13:35.719Z,18.15
2022-09-20T04:16:22.461Z,18.10
2022-09-20T04:18:57.616Z,18.09
2022-09-20T04:21:34.610Z,18.08
2022-09-20T04:24:09.673Z,18.02
2022-09-20T04:26:44.571Z,18.01
2022-09-20T04:29:33.509Z,18.04
2022-09-20T04:32:13.735Z,17.98
2022-09-20T04:34:48.787Z,17.95
2022-09-20T04:37:27.595Z,17.99
2022-09-20T04:40:09.226Z,17.96
2022-09-20T04:43:30.058Z,18.01
2022-09-20T04:46:49.359Z,17.92
2022-09-20T04:50:22.817Z,17.92
2022-09-20T04:53:24.498Z,17.95
2022-09-20T04:55:57.477Z,17.89
2022-09-20T04:58:48.822Z,17.96
2022-09-20T05:02:21.646Z,17.95
2022-09-20T05:05:30.110Z,17.91
2022-09-20T05:08:59.116Z,17.91
2022-09-20T05:12:10.060Z,17.89
2022-09-20T05:15:07.914Z,17.88
2022-09-20T05:18:05.694Z,17.91
2022-09-20T05:21:13.006Z,17.88
2022-09-20T05:24:10.772Z,17.89
2022-09-20T05:27:00.144Z,17.91
2022-09-20T05:29:36.069Z,17.91
2022-09-20T05:32:12.499Z,17.91
2022-09-20T05:34:50.836Z,17.92
2022-09-20T05:37:35.797Z,17.98
2022-09-20T05:40:16.097Z,17.96
2022-09-20T05:42:54.473Z,17.94
2022-09-20T05:45:47.369Z,17.89
2022-09-20T05:48:21.737Z,17.86
2022-09-20T05:51:03.084Z,17.88
2022-09-20T05:53:57.990Z,17.89
2022-09-20T05:56:41.630Z,17.88
2022-09-20T05:59:30.228Z,17.94
2022-09-20T06:02:23.512Z,17.98
2022-09-20T06:05:01.399Z,17.98
2022-09-20T06:07:49.848Z,18.04
2022-09-20T06:10:48.167Z,18.09
2022-09-20T06:13:45.251Z,18.13
2022-09-20T06:16:22.555Z,18.10
2022-09-20T06:19:04.941Z,18.21
2022-09-20T06:21:46.580Z,18.29
2022-09-20T06:24:29.280Z,18.39
2022-09-20T06:26:59.404Z,18.43
2022-09-20T06:29:33.169Z,18.52
2022-09-20T06:31:59.932Z,18.56
2022-09-20T06:34:28.723Z,18.67
2022-09-20T06:37:10.368Z,18.74
2022-09-20T06:39:49.404Z,18.80
2022-09-20T06:42:16.217Z,18.84
2022-09-20T06:44:42.914Z,18.93
2022-09-20T06:47:10.669Z,19.00
2022-09-20T06:49:37.501Z,19.06
2022-09-20T06:52:06.028Z,19.14
2022-09-20T06:54:33.891Z,19.21
2022-09-20T06:57:05.791Z,19.27
2022-09-20T06:59:32.648Z,19.25
2022-09-20T07:01:59.638Z,19.28
2022-09-20T07:04:26.348Z,19.31
2022-09-20T07:06:59.215Z,19.39
2022-09-20T07:09:26.055Z,19.51
2022-09-20T07:11:52.824Z,19.65
2022-09-20T07:14:21.988Z,19.80
2022-09-20T07:16:48.884Z,19.96
2022-09-20T07:19:15.597Z,20.10
2022-09-20T07:21:42.448Z,20.13
2022-09-20T07:24:09.208Z,20.27
2022-09-20T07:26:37.257Z,20.36
2022-09-20T07:29:04.489Z,20.55
2022-09-20T07:31:32.710Z,20.68
2022-09-20T07:33:59.488Z,20.87
2022-09-20T07:36:26.335Z,20.98
2022-09-20T07:38:53.652Z,21.12
2022-09-20T07:41:20.905Z,21.32
2022-09-20T07:43:47.956Z,21.53
2022-09-20T07:46:14.941Z,21.74
2022-09-20T07:48:43.230Z,21.93
2022-09-20T07:51:13.110Z,22.14
2022-09-20T07:53:41.212Z,22.30
2022-09-20T07:56:12.889Z,22.49
2022-09-20T07:58:40.180Z,22.68
2022-09-20T08:01:09.639Z,22.77
2022-09-20T08:03:39.921Z,22.96
2022-09-20T08:06:12.296Z,23.19
2022-09-20T08:08:40.740Z,23.37
2022-09-20T08:11:10.553Z,23.50
2022-09-20T08:16:27.012Z,23.78
2022-09-20T08:18:56.416Z,24.01
2022-09-20T08:24:18.125Z,24.28
2022-09-20T08:26:45.310Z,24.33
2022-09-20T08:29:12.316Z,24.42
2022-09-20T08:31:39.990Z,24.52
2022-09-20T08:34:08.659Z,24.70
2022-09-20T08:36:40.507Z,24.79
2022-09-20T08:41:59.240Z,25.00
2022-09-20T08:44:35.135Z,25.20
2022-09-20T08:47:11.123Z,25.44
2022-09-20T08:49:38.708Z,25.69
2022-09-20T08:52:10.422Z,25.96
2022-09-20T08:54:37.475Z,26.18
2022-09-20T08:57:14.288Z,26.43
2022-09-20T08:59:41.797Z,26.56
2022-09-20T09:02:16.821Z,26.80
2022-09-20T09:04:44.389Z,27.07
2022-09-20T09:07:14.749Z,27.35
2022-09-20T09:09:44.277Z,27.67
2022-09-20T09:12:21.752Z,28.16
2022-09-20T09:14:51.038Z,28.60
2022-09-20T09:17:20.599Z,29.14
2022-09-20T09:19:50.329Z,29.62
2022-09-20T09:22:28.275Z,29.96
2022-09-20T09:25:26.929Z,30.51
2022-09-20T09:27:57.188Z,30.79
2022-09-20T09:30:28.186Z,31.12
2022-09-20T09:33:24.539Z,31.31
2022-09-20T09:35:58.151Z,31.48
2022-09-20T09:38:30.955Z,31.89
2022-09-20T09:41:00.460Z,32.27
2022-09-20T09:43:30.662Z,32.53
2022-09-20T09:46:19.579Z,32.90
2022-09-20T09:48:47.626Z,33.20
2022-09-20T09:51:17.759Z,33.61
2022-09-20T09:53:48.181Z,34.04
2022-09-20T09:56:35.051Z,34.57
2022-09-20T09:59:32.975Z,35.20
2022-09-20T10:02:17.408Z,35.65
2022-09-20T10:04:54.336Z,35.35
2022-09-20T10:07:37.555Z,35.21
2022-09-20T10:10:25.832Z,35.82
2022-09-20T10:13:11.877Z,36.53
2022-09-20T10:15:49.885Z,37.01
2022-09-20T10:18:35.971Z,37.01
2022-09-20T10:24:47.347Z,36.29
2022-09-20T10:27:41.976Z,36.36
2022-09-20T10:30:13.896Z,35.61
2022-09-20T10:32:58.376Z,34.56
2022-09-20T10:35:34.615Z,33.44
2022-09-20T10:38:17.030Z,32.63
2022-09-20T10:41:14.584Z,33.23
2022-09-20T10:44:05.395Z,34.13
2022-09-20T10:46:51.230Z,34.96
2022-09-20T10:49:28.265Z,35.52
2022-09-20T10:52:12.986Z,36.05
2022-09-20T10:55:02.637Z,36.40
2022-09-20T10:57:53.660Z,36.28
2022-09-20T11:00:30.886Z,36.22
2022-09-20T11:03:20.905Z,36.60
2022-09-20T11:10:15.664Z,37.28
2022-09-20T11:12:48.184Z,37.27
2022-09-20T11:15:24.220Z,37.25
2022-09-20T11:18:04.702Z,37.08
2022-09-20T11:20:40.513Z,36.86
2022-09-20T11:23:17.673Z,36.84
2022-09-20T11:25:49.771Z,36.62
2022-09-20T11:28:25.002Z,36.49
2022-09-20T11:31:03.721Z,36.33
2022-09-20T11:33:41.542Z,36.28
2022-09-20T11:36:16.028Z,36.09
2022-09-20T11:38:53.411Z,35.85
2022-09-20T11:41:27.664Z,35.59
2022-09-20T11:43:59.142Z,35.45
2022-09-20T11:46:30.937Z,35.18
2022-09-20T11:49:02.633Z,34.74
2022-09-20T11:52:09.840Z,34.31
2022-09-20T11:55:18.332Z,33.85
2022-09-20T11:57:45.758Z,33.40
2022-09-20T12:00:13.019Z,33.06
2022-09-20T12:02:49.709Z,32.96
2022-09-20T12:05:30.295Z,32.91
2022-09-20T12:08:00.627Z,32.83
2022-09-20T12:10:33.204Z,32.72
2022-09-20T12:13:03.314Z,32.56
2022-09-20T12:15:34.558Z,32.49
2022-09-20T12:18:27.634Z,32.42
2022-09-20T12:21:06.717Z,32.27
2022-09-20T12:24:17.223Z,32.14
2022-09-20T12:26:47.375Z,31.94
2022-09-20T12:29:52.360Z,32.01
2022-09-20T12:32:54.818Z,32.08
2022-09-20T12:36:12.694Z,32.05
2022-09-20T12:38:49.357Z,31.91
2022-09-20T12:41:27.909Z,31.81
2022-09-20T12:44:02.528Z,31.74
2022-09-20T12:46:40.522Z,31.74
2022-09-20T12:49:25.180Z,31.80
2022-09-20T12:51:52.099Z,31.85
2022-09-20T12:54:22.677Z,31.92
2022-09-20T12:56:49.576Z,31.94
2022-09-20T12:59:24.690Z,31.88
2022-09-20T13:01:51.807Z,31.92
2022-09-20T13:05:01.606Z,32.18
2022-09-20T13:07:55.663Z,32.36
2022-09-20T13:10:30.774Z,32.40
2022-09-20T13:13:14.937Z,32.62
2022-09-20T13:15:50.309Z,32.80
2022-09-20T13:18:18.468Z,32.82
2022-09-20T13:20:46.234Z,32.90
2022-09-20T13:23:23.483Z,33.11
2022-09-20T13:25:53.367Z,33.19
2022-09-20T13:28:32.133Z,33.41
2022-09-20T13:31:25.424Z,33.51
2022-09-20T13:33:53.630Z,33.51
2022-09-20T13:36:27.872Z,33.60
2022-09-20T13:38:57.568Z,33.61
2022-09-20T13:41:30.244Z,33.70
2022-09-20T13:43:57.292Z,33.77
2022-09-20T13:46:30.760Z,33.79
2022-09-20T13:49:15.306Z,33.71
2022-09-20T13:51:42.072Z,33.41
2022-09-20T13:54:25.703Z,33.23
2022-09-20T13:56:58.638Z,33.03
2022-09-20T13:59:32.738Z,32.90
2022-09-20T14:02:00.582Z,32.60
2022-09-20T14:04:31.096Z,32.28
2022-09-20T14:06:59.931Z,31.95
2022-09-20T14:09:32.513Z,31.76
2022-09-20T14:12:03.306Z,31.61
2022-09-20T14:14:36.047Z,31.57
2022-09-20T14:17:07.174Z,31.66
2022-09-20T14:19:40.067Z,31.77
2022-09-20T14:22:13.557Z,31.84
2022-09-20T14:24:40.380Z,31.94
2022-09-20T14:27:18.930Z,32.07
2022-09-20T14:29:47.861Z,32.17
2022-09-20T14:32:34.251Z,32.32
2022-09-20T14:35:06.734Z,32.17
2022-09-20T14:37:41.594Z,31.99
2022-09-20T14:40:21.191Z,31.74
2022-09-20T14:42:54.506Z,31.37
2022-09-20T14:45:27.161Z,30.97
2022-09-20T14:48:01.581Z,30.66
2022-09-20T14:50:31.572Z,30.38
2022-09-20T14:53:22.618Z,30.05
2022-09-20T14:56:02.699Z,29.87
2022-09-20T14:58:31.711Z,29.94
2022-09-20T15:01:03.920Z,30.27
2022-09-20T15:03:57.467Z,30.66
2022-09-20T15:06:25.723Z,31.12
2022-09-20T15:08:52.713Z,31.53
2022-09-20T15:11:20.164Z,31.89
2022-09-20T15:13:48.224Z,32.24
2022-09-20T15:16:18.278Z,32.53
2022-09-20T15:18:48.352Z,32.70
2022-09-20T15:21:15.212Z,32.90
2022-09-20T15:23:42.050Z,33.00
2022-09-20T15:26:11.760Z,32.99
2022-09-20T15:28:39.044Z,32.86
2022-09-20T15:31:07.372Z,32.79
2022-09-20T15:33:34.087Z,32.70
2022-09-20T15:36:03.159Z,32.66
2022-09-20T15:38:30.166Z,32.62
2022-09-20T15:41:00.958Z,32.63
2022-09-20T15:43:27.702Z,32.59
2022-09-20T15:45:57.615Z,32.53
2022-09-20T15:48:28.684Z,32.45
2022-09-20T15:51:04.355Z,32.33
2022-09-20T15:53:33.917Z,32.29
2022-09-20T15:56:02.947Z,32.35
2022-09-20T15:58:35.624Z,32.40
2022-09-20T16:01:05.464Z,32.51
2022-09-20T16:03:35.045Z,32.66
2022-09-20T16:06:04.893Z,32.86
2022-09-20T16:08:32.976Z,33.09
2022-09-20T16:11:01.090Z,33.31
2022-09-20T16:13:28.419Z,33.51
2022-09-20T16:15:55.831Z,33.38
2022-09-20T16:18:22.836Z,33.16
2022-09-20T16:20:50.988Z,32.80
2022-09-20T16:23:17.784Z,32.43
2022-09-20T16:25:44.615Z,32.04
2022-09-20T16:28:11.396Z,31.66
2022-09-20T16:30:38.192Z,31.27
2022-09-20T16:33:05.084Z,30.93
2022-09-20T16:35:32.139Z,30.64
2022-09-20T16:38:00.425Z,30.35
2022-09-20T16:40:27.180Z,30.07
2022-09-20T16:42:54.563Z,29.96
2022-09-20T16:45:21.453Z,30.00
2022-09-20T16:47:48.345Z,30.15
2022-09-20T16:50:15.286Z,30.25
2022-09-20T16:52:42.965Z,30.17
2022-09-20T16:55:11.407Z,29.96
2022-09-20T16:57:38.250Z,29.69
2022-09-20T17:00:06.589Z,29.46
2022-09-20T17:02:33.421Z,29.25
2022-09-20T17:05:00.341Z,29.02
2022-09-20T17:07:27.183Z,28.79
2022-09-20T17:09:54.036Z,28.63
2022-09-20T17:12:22.537Z,28.43
2022-09-20T17:14:49.297Z,28.28
2022-09-20T17:17:16.074Z,28.10
2022-09-20T17:19:42.725Z,27.96
2022-09-20T17:22:09.647Z,27.82
2022-09-20T17:24:36.316Z,27.69
2022-09-20T17:27:03.808Z,27.59
2022-09-20T17:29:31.840Z,27.46
2022-09-20T17:31:58.743Z,27.37
2022-09-20T17:34:26.353Z,27.22
2022-09-20T17:36:54.039Z,27.05
2022-09-20T17:39:20.953Z,26.87
2022-09-20T17:41:49.345Z,26.67
2022-09-20T17:44:16.918Z,26.50
2022-09-20T17:46:47.422Z,26.36
2022-09-20T17:49:17.116Z,26.22
2022-09-20T17:51:45.936Z,26.05
2022-09-20T17:54:13.799Z,25.92
2022-09-20T17:56:42.251Z,25.81
2022-09-20T17:59:10.895Z,25.67
2022-09-20T18:01:39.098Z,25.55
2022-09-20T18:04:08.793Z,25.42
2022-09-20T18:06:37.902Z,25.31
2022-09-20T18:09:07.801Z,25.21
2022-09-20T18:11:37.627Z,25.10
2022-09-20T18:14:07.414Z,24.97
2022-09-20T18:16:34.808Z,24.84
2022-09-20T18:19:02.010Z,24.77
2022-09-20T18:21:31.610Z,24.69
2022-09-20T18:26:49.824Z,24.52
2022-09-20T18:29:18.014Z,24.49
2022-09-20T18:31:48.880Z,24.43
2022-09-20T18:34:18.307Z,24.33
2022-09-20T18:36:50.937Z,24.26
2022-09-20T18:39:19.729Z,24.18
2022-09-20T18:41:46.582Z,24.14
2022-09-20T18:44:13.251Z,24.08
2022-09-20T18:46:40.679Z,24.07
2022-09-20T18:49:09.859Z,24.02
2022-09-20T18:51:39.674Z,23.95
2022-09-20T18:54:10.222Z,23.91
2022-09-20T18:56:39.136Z,23.87
2022-09-20T18:59:12.691Z,23.81
2022-09-20T19:01:59.547Z,23.77
2022-09-20T19:05:12.717Z,23.68
2022-09-20T19:07:56.980Z,23.54
2022-09-20T19:10:38.710Z,23.49
2022-09-20T19:13:24.117Z,23.42
2022-09-20T19:16:11.639Z,23.34
2022-09-20T19:19:38.725Z,23.24
2022-09-20T19:22:23.203Z,23.16
2022-09-20T19:25:19.371Z,23.16
2022-09-20T19:27:48.495Z,23.05
2022-09-20T19:30:16.939Z,22.99
2022-09-20T19:32:44.810Z,22.98
2022-09-20T19:35:21.748Z,22.92
2022-09-20T19:38:06.668Z,22.92
2022-09-20T19:40:44.859Z,22.83
2022-09-20T19:43:48.748Z,22.79
2022-09-20T19:46:40.191Z,22.71
2022-09-20T19:49:15.487Z,22.61
2022-09-20T19:51:44.559Z,22.55
2022-09-20T19:54:13.911Z,22.49
2022-09-20T19:56:53.010Z,22.48
2022-09-20T19:59:23.770Z,22.38
2022-09-20T20:01:51.811Z,22.33
2022-09-20T20:04:19.628Z,22.31
2022-09-20T20:06:58.148Z,22.28
2022-09-20T20:09:37.535Z,22.25
2022-09-20T20:12:13.577Z,22.20
2022-09-20T20:14:51.973Z,22.13
2022-09-20T20:17:34.901Z,22.08
2022-09-20T20:20:26.138Z,21.98
2022-09-20T20:23:32.786Z,21.96
2022-09-20T20:26:07.702Z,21.84
2022-09-20T20:28:35.703Z,21.82
2022-09-20T20:31:04.582Z,21.80
2022-09-20T20:33:31.697Z,21.76
2022-09-20T20:36:01.471Z,21.73
2022-09-20T20:38:29.164Z,21.69
2022-09-20T20:41:00.714Z,21.66
2022-09-20T20:43:27.525Z,21.62
2022-09-20T20:45:54.218Z,21.57
2022-09-20T20:48:22.690Z,21.59
2022-09-20T20:51:02.458Z,21.59
2022-09-20T20:53:34.941Z,21.54
2022-09-20T20:56:04.989Z,21.47
2022-09-20T20:58:32.894Z,21.43
2022-09-20T21:01:12.569Z,21.43
2022-09-20T21:03:44.165Z,21.38
2022-09-20T21:06:11.407Z,21.33
2022-09-20T21:08:40.798Z,21.32
2022-09-20T21:11:10.436Z,21.31
2022-09-20T21:13:38.263Z,21.28
2022-09-20T21:16:10.557Z,21.29
2022-09-20T21:18:40.493Z,21.23
2022-09-20T21:21:16.694Z,21.22
2022-09-20T21:23:44.831Z,21.16
2022-09-20T21:26:13.149Z,21.15
2022-09-20T21:28:42.348Z,21.11
2022-09-20T21:31:11.367Z,21.11
2022-09-20T21:33:42.419Z,21.08
2022-09-20T21:36:11.699Z,21.03
2022-09-20T21:38:39.819Z,20.98
2022-09-20T21:41:09.951Z,20.98
2022-09-20T21:43:36.784Z,20.92
2022-09-20T21:46:03.718Z,20.91
2022-09-20T21:48:30.956Z,20.88
2022-09-20T21:51:05.607Z,20.85
2022-09-20T21:53:33.120Z,20.81
2022-09-20T21:56:02.551Z,20.77
2022-09-20T21:58:29.938Z,20.78
2022-09-20T22:01:01.676Z,20.74
2022-09-20T22:03:56.565Z,20.67
2022-09-20T22:06:27.188Z,20.65
2022-09-20T22:08:56.722Z,20.63
2022-09-20T22:11:25.185Z,20.60
2022-09-20T22:13:54.205Z,20.57
2022-09-20T22:16:24.057Z,20.54
2022-09-20T22:18:51.642Z,20.55
2022-09-20T22:21:21.863Z,20.51
2022-09-20T22:23:51.959Z,20.50
2022-09-20T22:26:21.821Z,20.48
2022-09-20T22:28:49.248Z,20.43
2022-09-20T22:31:19.742Z,20.41
2022-09-20T22:33:49.183Z,20.37
2022-09-20T22:36:18.926Z,20.37
2022-09-20T22:38:46.216Z,20.31
2022-09-20T22:41:16.422Z,20.29
2022-09-20T22:43:43.894Z,20.27
2022-09-20T22:46:13.302Z,20.24
2022-09-20T22:48:41.272Z,20.21
2022-09-20T22:51:11.106Z,20.20
2022-09-20T22:53:38.507Z,20.17
2022-09-20T22:56:08.829Z,20.13
2022-09-20T22:58:39.628Z,20.12
2022-09-20T23:01:13.558Z,20.10
2022-09-20T23:03:43.283Z,20.05
2022-09-20T23:06:15.558Z,20.03
2022-09-20T23:08:43.055Z,19.97
2022-09-20T23:11:10.376Z,19.94
2022-09-20T23:13:38.729Z,19.90
2022-09-20T23:16:14.131Z,19.93
2022-09-20T23:18:41.473Z,19.87
2022-09-20T23:21:08.622Z,19.86
2022-09-20T23:23:35.749Z,19.83
2022-09-20T23:26:08.259Z,19.85
2022-09-20T23:28:36.852Z,19.78
2022-09-20T23:31:07.426Z,19.78
2022-09-20T23:33:34.780Z,19.75
2022-09-20T23:36:05.967Z,19.75
2022-09-20T23:38:32.751Z,19.66
2022-09-20T23:41:03.586Z,19.68
2022-09-20T23:43:30.647Z,19.62
2022-09-20T23:45:57.551Z,19.62
2022-09-20T23:48:26.321Z,19.58
2022-09-20T23:50:53.322Z,19.55
2022-09-20T23:53:20.250Z,19.51
2022-09-20T23:55:47.392Z,19.52
2022-09-20T23:58:14.449Z,19.51
